createdAt,value
2023-05-22T00:00:37.420Z,49.21
2023-05-22T00:03:24.730Z,49.04
2023-05-22T00:05:53.596Z,49.44
2023-05-22T00:08:22.586Z,49.25
2023-05-22T00:10:51.155Z,49.33
2023-05-22T00:13:20.848Z,49.47
2023-05-22T00:15:49.871Z,49.27
2023-05-22T00:18:19.571Z,49.14
2023-05-22T00:20:48.566Z,48.85
2023-05-22T00:23:17.492Z,48.66
2023-05-22T00:25:46.164Z,49.06
2023-05-22T00:28:15.112Z,48.96
2023-05-22T00:30:43.836Z,48.78
2023-05-22T00:33:13.199Z,48.41
2023-05-22T00:35:41.875Z,48.49
2023-05-22T00:38:14.232Z,48.55
2023-05-22T00:40:43.027Z,48.28
2023-05-22T00:43:12.439Z,48.04
2023-05-22T00:45:41.165Z,47.89
2023-05-22T00:48:12.618Z,47.88
2023-05-22T00:50:41.854Z,47.88
2023-05-22T00:53:11.038Z,47.97
2023-05-22T00:55:39.608Z,47.89
2023-05-22T00:58:08.961Z,47.83
2023-05-22T01:00:37.890Z,47.24
2023-05-22T01:03:08.221Z,47.51
2023-05-22T01:05:37.705Z,47.47
2023-05-22T01:08:08.009Z,47.46
2023-05-22T01:10:38.179Z,47.04
2023-05-22T01:13:30.180Z,47.07
2023-05-22T01:16:47.000Z,47.57
2023-05-22T01:19:50.895Z,47.38
2023-05-22T01:22:58.794Z,47.08
2023-05-22T01:25:59.896Z,47.28
2023-05-22T01:29:00.208Z,47.30
2023-05-22T01:31:30.698Z,47.48
2023-05-22T01:34:01.486Z,47.36
2023-05-22T01:36:32.907Z,46.95
2023-05-22T01:39:01.834Z,47.16
2023-05-22T01:41:30.929Z,47.04
2023-05-22T01:44:00.574Z,46.84
2023-05-22T01:46:31.842Z,47.26
2023-05-22T01:49:00.830Z,46.78
2023-05-22T01:51:53.150Z,46.95
2023-05-22T01:54:42.577Z,46.70
2023-05-22T01:57:36.188Z,46.29
2023-05-22T02:00:11.879Z,46.56
2023-05-22T02:02:52.234Z,46.46
2023-05-22T02:05:21.420Z,46.38
2023-05-22T02:07:50.590Z,46.42
2023-05-22T02:10:19.901Z,46.42
2023-05-22T02:12:48.979Z,46.44
2023-05-22T02:15:18.537Z,46.50
2023-05-22T02:17:49.997Z,46.48
2023-05-22T02:20:18.996Z,46.32
2023-05-22T02:22:48.510Z,46.19
2023-05-22T02:25:17.866Z,46.29
2023-05-22T02:27:49.801Z,46.11
2023-05-22T02:30:18.601Z,46.14
2023-05-22T02:32:51.401Z,45.88
2023-05-22T02:35:20.292Z,45.73
2023-05-22T02:37:49.303Z,45.87
2023-05-22T02:40:18.477Z,46.06
2023-05-22T02:42:47.500Z,45.97
2023-05-22T02:45:17.422Z,45.98
2023-05-22T02:47:46.535Z,45.62
2023-05-22T02:50:15.222Z,45.86
2023-05-22T02:52:45.643Z,46.06
2023-05-22T02:55:14.367Z,46.02
2023-05-22T02:57:43.481Z,45.99
2023-05-22T03:00:12.873Z,45.80
2023-05-22T03:02:42.886Z,45.94
2023-05-22T03:05:11.770Z,45.94
2023-05-22T03:07:41.365Z,46.00
2023-05-22T03:10:10.347Z,46.09
2023-05-22T03:12:39.441Z,46.26
2023-05-22T03:15:09.139Z,46.64
2023-05-22T03:17:39.373Z,46.66
2023-05-22T03:20:09.086Z,46.71
2023-05-22T03:22:38.162Z,46.46
2023-05-22T03:25:09.662Z,46.70
2023-05-22T03:27:40.248Z,47.33
2023-05-22T03:30:09.876Z,47.27
2023-05-22T03:32:41.228Z,46.84
2023-05-22T03:35:10.123Z,47.16
2023-05-22T03:37:39.184Z,47.15
2023-05-22T03:40:10.762Z,47.45
2023-05-22T03:42:39.573Z,47.75
2023-05-22T03:45:09.164Z,47.79
2023-05-22T03:47:39.295Z,47.64
2023-05-22T03:50:08.234Z,47.88
2023-05-22T03:52:37.005Z,48.12
2023-05-22T03:55:07.510Z,48.29
2023-05-22T03:57:36.278Z,48.37
2023-05-22T04:00:10.050Z,48.10
2023-05-22T04:02:45.508Z,48.44
2023-05-22T04:05:14.950Z,47.94
2023-05-22T04:07:45.435Z,48.00
2023-05-22T04:10:13.883Z,48.06
2023-05-22T04:12:42.609Z,48.30
2023-05-22T04:15:11.000Z,48.68
2023-05-22T04:17:41.357Z,48.64
2023-05-22T04:20:11.474Z,48.71
2023-05-22T04:22:41.457Z,48.68
2023-05-22T04:25:11.348Z,48.88
2023-05-22T04:27:40.360Z,48.85
2023-05-22T04:30:10.770Z,48.87
2023-05-22T04:32:41.450Z,49.52
2023-05-22T04:35:12.522Z,49.51
2023-05-22T04:37:42.508Z,49.78
2023-05-22T04:40:11.593Z,49.59
2023-05-22T04:42:40.631Z,49.46
2023-05-22T04:45:10.168Z,49.70
2023-05-22T04:47:41.841Z,49.42
2023-05-22T04:50:10.999Z,49.30
2023-05-22T04:52:39.783Z,49.08
2023-05-22T04:55:12.413Z,49.08
2023-05-22T04:57:41.724Z,49.36
2023-05-22T05:00:11.076Z,49.41
2023-05-22T05:02:41.478Z,49.41
2023-05-22T05:05:10.249Z,49.17
2023-05-22T05:07:40.308Z,49.18
2023-05-22T05:10:10.211Z,49.11
2023-05-22T05:12:39.248Z,49.05
2023-05-22T05:15:10.472Z,49.14
2023-05-22T05:17:39.591Z,49.10
2023-05-22T05:20:10.718Z,48.96
2023-05-22T05:22:40.410Z,48.91
2023-05-22T05:25:10.952Z,48.79
2023-05-22T05:27:41.246Z,49.00
2023-05-22T05:30:11.310Z,48.94
2023-05-22T05:33:15.677Z,49.15
2023-05-22T05:36:02.804Z,49.05
2023-05-22T05:38:32.766Z,49.29
2023-05-22T05:41:01.117Z,49.22
2023-05-22T05:43:29.901Z,49.11
2023-05-22T05:46:04.281Z,49.19
2023-05-22T05:48:33.136Z,49.22
2023-05-22T05:51:01.720Z,49.39
2023-05-22T05:53:37.416Z,49.35
2023-05-22T05:56:08.283Z,49.29
2023-05-22T05:58:38.575Z,49.57
2023-05-22T06:01:42.002Z,49.43
2023-05-22T06:04:16.902Z,49.63
2023-05-22T06:06:48.010Z,49.70
2023-05-22T06:09:17.192Z,49.64
2023-05-22T06:12:06.548Z,49.85
2023-05-22T06:14:35.556Z,49.85
2023-05-22T06:17:05.064Z,49.72
2023-05-22T06:19:34.046Z,49.84
2023-05-22T06:22:02.791Z,50.11
2023-05-22T06:24:32.802Z,50.10
2023-05-22T06:27:06.844Z,50.16
2023-05-22T06:29:37.733Z,49.97
2023-05-22T06:32:07.044Z,50.07
2023-05-22T06:34:37.745Z,50.62
2023-05-22T06:37:06.928Z,50.20
2023-05-22T06:39:42.944Z,50.12
2023-05-22T06:42:44.990Z,50.69
2023-05-22T06:45:32.394Z,50.82
2023-05-22T06:48:26.750Z,50.67
2023-05-22T06:51:11.872Z,50.79
2023-05-22T06:53:42.590Z,49.83
2023-05-22T06:56:22.882Z,49.96
2023-05-22T06:58:58.957Z,49.58
2023-05-22T07:01:53.135Z,49.21
2023-05-22T07:04:39.236Z,49.10
2023-05-22T07:07:11.753Z,48.14
2023-05-22T07:09:41.003Z,48.36
2023-05-22T07:12:10.331Z,48.56
2023-05-22T07:14:39.034Z,48.06
2023-05-22T07:17:08.276Z,48.26
2023-05-22T07:19:42.452Z,47.31
2023-05-22T07:22:11.472Z,45.96
2023-05-22T07:24:41.385Z,45.29
2023-05-22T07:27:11.825Z,44.70
2023-05-22T07:29:41.402Z,44.97
2023-05-22T07:32:11.100Z,45.27
2023-05-22T07:34:40.517Z,45.48
2023-05-22T07:37:13.357Z,45.05
2023-05-22T07:39:43.258Z,44.87
2023-05-22T07:42:15.155Z,44.51
2023-05-22T07:44:50.431Z,44.54
2023-05-22T07:47:21.204Z,44.27
2023-05-22T07:49:51.260Z,43.82
2023-05-22T07:52:22.176Z,43.70
2023-05-22T07:54:52.345Z,43.34
2023-05-22T07:57:23.321Z,43.13
2023-05-22T07:59:54.460Z,43.01
2023-05-22T08:02:23.347Z,42.70
2023-05-22T08:04:51.938Z,42.51
2023-05-22T08:07:20.796Z,42.36
2023-05-22T08:09:49.277Z,42.20
2023-05-22T08:12:18.008Z,42.04
2023-05-22T08:14:46.530Z,42.01
2023-05-22T08:17:15.729Z,42.00
2023-05-22T08:19:44.313Z,42.07
2023-05-22T08:22:13.151Z,42.06
2023-05-22T08:24:41.747Z,41.89
2023-05-22T08:27:11.487Z,41.88
2023-05-22T08:29:39.950Z,41.89
2023-05-22T08:32:08.965Z,41.87
2023-05-22T08:34:37.401Z,41.76
2023-05-22T08:37:06.778Z,42.00
2023-05-22T08:39:35.333Z,41.71
2023-05-22T08:42:05.064Z,41.67
2023-05-22T08:44:33.529Z,41.75
2023-05-22T08:47:04.733Z,41.55
2023-05-22T08:49:33.301Z,41.48
2023-05-22T08:52:27.237Z,41.59
2023-05-22T08:54:56.260Z,41.74
2023-05-22T08:57:25.132Z,41.80
2023-05-22T08:59:53.708Z,41.91
2023-05-22T09:02:22.466Z,42.05
2023-05-22T09:04:51.464Z,42.09
2023-05-22T09:07:22.681Z,42.06
2023-05-22T09:09:51.207Z,42.30
2023-05-22T09:12:20.000Z,42.31
2023-05-22T09:14:48.510Z,42.38
2023-05-22T09:17:17.703Z,42.45
2023-05-22T09:19:46.527Z,42.49
2023-05-22T09:22:15.334Z,42.33
2023-05-22T09:24:45.180Z,42.53
2023-05-22T09:27:13.965Z,42.47
2023-05-22T09:29:53.929Z,42.57
2023-05-22T09:32:22.869Z,42.65
2023-05-22T09:34:51.642Z,42.54
2023-05-22T09:37:20.620Z,42.33
2023-05-22T09:39:51.780Z,42.37
2023-05-22T09:42:20.889Z,42.33
2023-05-22T09:44:50.031Z,41.90
2023-05-22T09:47:19.121Z,41.59
2023-05-22T09:49:47.969Z,41.43
2023-05-22T09:52:16.817Z,41.30
2023-05-22T09:54:56.054Z,40.82
2023-05-22T09:57:26.576Z,40.69
2023-05-22T09:59:58.544Z,40.38
2023-05-22T10:02:29.108Z,40.24
2023-05-22T10:04:57.786Z,40.33
2023-05-22T10:07:34.898Z,40.70
2023-05-22T10:10:09.346Z,40.99
2023-05-22T10:12:48.936Z,41.40
2023-05-22T10:15:17.876Z,41.73
2023-05-22T10:17:46.777Z,41.07
2023-05-22T10:20:16.587Z,40.62
2023-05-22T10:22:45.330Z,40.82
2023-05-22T10:25:13.755Z,40.76
2023-05-22T10:27:42.577Z,40.51
2023-05-22T10:30:32.319Z,40.49
2023-05-22T10:33:31.872Z,40.39
2023-05-22T10:36:24.832Z,40.73
2023-05-22T10:38:56.912Z,40.73
2023-05-22T10:41:26.065Z,41.20
2023-05-22T10:43:56.898Z,40.86
2023-05-22T10:46:25.755Z,40.46
2023-05-22T10:48:55.615Z,39.49
2023-05-22T10:51:24.255Z,40.46
2023-05-22T10:54:05.576Z,40.45
2023-05-22T10:56:35.658Z,39.38
2023-05-22T10:59:08.602Z,38.42
2023-05-22T11:01:38.695Z,38.32
2023-05-22T11:04:22.768Z,38.93
2023-05-22T11:07:08.995Z,39.50
2023-05-22T11:09:47.782Z,39.87
2023-05-22T11:12:27.344Z,39.91
2023-05-22T11:15:10.445Z,40.32
2023-05-22T11:17:45.507Z,40.05
2023-05-22T11:20:24.611Z,40.54
2023-05-22T11:23:05.906Z,41.19
2023-05-22T11:25:38.389Z,38.79
2023-05-22T11:28:07.296Z,38.13
2023-05-22T11:30:36.130Z,38.75
2023-05-22T11:33:06.791Z,39.70
2023-05-22T11:35:35.609Z,39.59
2023-05-22T11:38:07.373Z,39.24
2023-05-22T11:40:36.260Z,38.88
2023-05-22T11:43:04.967Z,38.97
2023-05-22T11:45:39.798Z,38.51
2023-05-22T11:48:09.250Z,37.59
2023-05-22T11:50:42.164Z,37.84
2023-05-22T11:53:11.584Z,37.53
2023-05-22T11:55:41.640Z,37.37
2023-05-22T11:58:09.925Z,38.72
2023-05-22T12:00:38.863Z,37.81
2023-05-22T12:03:07.588Z,37.68
2023-05-22T12:05:36.632Z,38.44
2023-05-22T12:08:05.001Z,38.57
2023-05-22T12:10:33.762Z,37.91
2023-05-22T12:13:02.241Z,37.23
2023-05-22T12:15:31.156Z,37.10
2023-05-22T12:17:59.488Z,37.43
2023-05-22T12:20:31.476Z,37.80
2023-05-22T12:23:00.068Z,37.38
2023-05-22T12:25:37.093Z,38.01
2023-05-22T12:28:07.531Z,37.71
2023-05-22T12:30:42.533Z,37.30
2023-05-22T12:33:15.313Z,36.98
2023-05-22T12:35:44.277Z,37.19
2023-05-22T12:38:13.733Z,37.63
2023-05-22T12:40:45.715Z,37.57
2023-05-22T12:43:14.224Z,37.55
2023-05-22T12:45:42.894Z,37.52
2023-05-22T12:48:12.176Z,37.48
2023-05-22T12:50:41.442Z,37.87
2023-05-22T12:53:10.029Z,37.85
2023-05-22T12:55:39.610Z,37.51
2023-05-22T12:58:08.307Z,37.74
2023-05-22T13:00:37.215Z,37.96
2023-05-22T13:03:06.183Z,37.70
2023-05-22T13:05:34.986Z,37.63
2023-05-22T13:08:03.505Z,36.71
2023-05-22T13:10:32.280Z,36.83
2023-05-22T13:13:00.649Z,36.37
2023-05-22T13:15:32.704Z,36.75
2023-05-22T13:18:01.094Z,36.25
2023-05-22T13:20:30.030Z,35.19
2023-05-22T13:22:58.390Z,34.92
2023-05-22T13:25:27.129Z,35.30
2023-05-22T13:27:55.767Z,35.38
2023-05-22T13:30:24.648Z,34.64
2023-05-22T13:32:53.339Z,34.23
2023-05-22T13:35:22.253Z,34.19
2023-05-22T13:37:50.850Z,34.73
2023-05-22T13:40:20.279Z,34.80
2023-05-22T13:42:48.701Z,34.79
2023-05-22T13:45:17.362Z,33.73
2023-05-22T13:47:45.713Z,33.92
2023-05-22T13:50:14.561Z,34.18
2023-05-22T13:52:43.004Z,33.65
2023-05-22T13:55:12.086Z,33.56
2023-05-22T13:57:40.800Z,33.26
2023-05-22T14:00:10.382Z,34.03
2023-05-22T14:02:38.966Z,34.49
2023-05-22T14:05:08.808Z,34.62
2023-05-22T14:07:37.184Z,34.34
2023-05-22T14:10:06.950Z,34.26
2023-05-22T14:12:35.402Z,34.73
2023-05-22T14:15:04.323Z,35.44
2023-05-22T14:17:32.670Z,36.07
2023-05-22T14:20:01.683Z,36.99
2023-05-22T14:22:31.504Z,37.33
2023-05-22T14:25:03.630Z,37.42
2023-05-22T14:27:32.117Z,37.84
2023-05-22T14:30:00.952Z,38.46
2023-05-22T14:32:29.355Z,38.73
2023-05-22T14:34:58.131Z,38.70
2023-05-22T14:37:26.472Z,39.58
2023-05-22T14:39:55.169Z,39.99
2023-05-22T14:42:23.565Z,39.99
2023-05-22T14:44:52.445Z,40.18
2023-05-22T14:47:20.924Z,40.32
2023-05-22T14:49:49.631Z,40.41
2023-05-22T14:52:17.943Z,40.45
2023-05-22T14:54:46.774Z,40.55
2023-05-22T14:57:15.219Z,40.66
2023-05-22T14:59:43.911Z,40.85
2023-05-22T15:02:12.328Z,40.83
2023-05-22T15:04:41.187Z,40.59
2023-05-22T15:07:09.563Z,40.93
2023-05-22T15:09:38.287Z,41.03
2023-05-22T15:12:07.167Z,41.00
2023-05-22T15:14:35.980Z,41.18
2023-05-22T15:17:04.655Z,41.15
2023-05-22T15:19:33.512Z,41.36
2023-05-22T15:22:15.719Z,41.50
2023-05-22T15:24:48.438Z,41.51
2023-05-22T15:27:17.535Z,41.75
2023-05-22T15:29:46.317Z,41.89
2023-05-22T15:32:14.740Z,42.00
2023-05-22T15:34:43.537Z,42.22
2023-05-22T15:37:11.944Z,42.33
2023-05-22T15:39:40.774Z,42.36
2023-05-22T15:42:09.317Z,42.51
2023-05-22T15:44:38.360Z,42.61
2023-05-22T15:47:06.917Z,42.61
2023-05-22T15:49:35.702Z,42.63
2023-05-22T15:52:04.092Z,42.54
2023-05-22T15:54:32.935Z,42.94
2023-05-22T15:57:01.388Z,42.86
2023-05-22T15:59:30.286Z,42.93
2023-05-22T16:01:58.797Z,42.72
2023-05-22T16:04:27.572Z,42.88
2023-05-22T16:06:56.101Z,43.03
2023-05-22T16:09:24.867Z,43.34
2023-05-22T16:11:53.341Z,43.32
2023-05-22T16:14:22.230Z,43.45
2023-05-22T16:16:51.015Z,43.40
2023-05-22T16:19:19.818Z,43.44
2023-05-22T16:21:48.411Z,43.43
2023-05-22T16:24:17.224Z,43.41
2023-05-22T16:26:45.943Z,43.62
2023-05-22T16:29:15.153Z,43.66
2023-05-22T16:31:43.662Z,43.47
2023-05-22T16:34:12.582Z,43.18
2023-05-22T16:36:41.142Z,41.85
2023-05-22T16:39:10.048Z,40.92
2023-05-22T16:41:38.530Z,40.89
2023-05-22T16:44:07.338Z,40.79
2023-05-22T16:46:35.740Z,41.38
2023-05-22T16:49:04.620Z,41.46
2023-05-22T16:51:33.144Z,41.55
2023-05-22T16:54:01.996Z,41.54
2023-05-22T16:56:34.216Z,41.17
2023-05-22T16:59:03.836Z,41.26
2023-05-22T17:01:32.418Z,41.10
2023-05-22T17:04:01.266Z,41.37
2023-05-22T17:06:30.261Z,40.31
2023-05-22T17:08:59.051Z,40.92
2023-05-22T17:11:27.775Z,40.89
2023-05-22T17:13:56.676Z,40.58
2023-05-22T17:16:25.206Z,40.99
2023-05-22T17:18:55.092Z,40.55
2023-05-22T17:21:24.449Z,40.33
2023-05-22T17:23:53.246Z,39.48
2023-05-22T17:26:21.724Z,39.33
2023-05-22T17:28:50.778Z,39.43
2023-05-22T17:31:19.262Z,39.16
2023-05-22T17:33:48.206Z,39.05
2023-05-22T17:36:16.863Z,39.15
2023-05-22T17:38:45.818Z,39.00
2023-05-22T17:41:14.467Z,38.80
2023-05-22T17:43:43.406Z,38.92
2023-05-22T17:46:12.140Z,38.88
2023-05-22T17:48:41.286Z,39.41
2023-05-22T17:51:10.543Z,38.97
2023-05-22T17:53:39.479Z,39.47
2023-05-22T17:56:08.097Z,39.50
2023-05-22T17:58:36.824Z,39.54
2023-05-22T18:01:05.313Z,39.61
2023-05-22T18:03:34.391Z,39.98
2023-05-22T18:06:02.968Z,40.51
2023-05-22T18:08:31.726Z,40.65
2023-05-22T18:11:00.685Z,40.80
2023-05-22T18:13:29.622Z,40.50
2023-05-22T18:15:59.335Z,40.78
2023-05-22T18:18:28.206Z,40.93
2023-05-22T18:20:58.187Z,40.95
2023-05-22T18:23:27.128Z,41.09
2023-05-22T18:25:55.627Z,41.43
2023-05-22T18:28:26.986Z,41.36
2023-05-22T18:30:55.948Z,41.56
2023-05-22T18:33:25.104Z,42.06
2023-05-22T18:35:53.762Z,42.40
2023-05-22T18:38:22.577Z,42.56
2023-05-22T18:40:52.567Z,42.79
2023-05-22T18:43:27.869Z,42.88
2023-05-22T18:45:57.937Z,43.17
2023-05-22T18:48:28.553Z,43.10
2023-05-22T18:50:58.056Z,43.24
2023-05-22T18:53:27.441Z,43.23
2023-05-22T18:55:56.005Z,43.71
2023-05-22T18:58:24.923Z,43.58
2023-05-22T19:00:55.889Z,43.57
2023-05-22T19:03:24.960Z,43.68
2023-05-22T19:05:54.198Z,44.13
2023-05-22T19:08:25.516Z,44.15
2023-05-22T19:10:57.754Z,44.35
2023-05-22T19:13:27.676Z,44.72
2023-05-22T19:15:57.482Z,44.77
2023-05-22T19:18:27.633Z,44.52
2023-05-22T19:20:56.414Z,45.03
2023-05-22T19:23:26.032Z,45.37
2023-05-22T19:25:57.282Z,45.85
2023-05-22T19:28:26.367Z,45.82
2023-05-22T19:30:57.904Z,45.81
2023-05-22T19:33:28.223Z,46.01
2023-05-22T19:35:58.086Z,45.96
2023-05-22T19:38:27.020Z,45.90
2023-05-22T19:40:55.599Z,45.83
2023-05-22T19:43:24.965Z,45.87
2023-05-22T19:45:54.511Z,46.06
2023-05-22T19:48:23.528Z,46.14
2023-05-22T19:50:52.476Z,46.15
2023-05-22T19:53:21.542Z,46.32
2023-05-22T19:55:50.197Z,46.85
2023-05-22T19:58:20.017Z,46.83
2023-05-22T20:00:48.934Z,47.11
2023-05-22T20:03:21.038Z,47.25
2023-05-22T20:05:53.450Z,46.78
2023-05-22T20:08:23.549Z,46.80
2023-05-22T20:10:52.431Z,46.61
2023-05-22T20:13:21.533Z,46.62
2023-05-22T20:15:53.527Z,46.56
2023-05-22T20:18:23.225Z,46.35
2023-05-22T20:20:52.071Z,46.34
2023-05-22T20:23:21.450Z,46.15
2023-05-22T20:25:50.496Z,46.22
2023-05-22T20:28:22.069Z,46.37
2023-05-22T20:30:51.667Z,46.31
2023-05-22T20:33:20.661Z,46.71
2023-05-22T20:35:52.868Z,47.08
2023-05-22T20:38:22.688Z,47.61
2023-05-22T20:40:52.333Z,48.02
2023-05-22T20:43:21.420Z,48.47
2023-05-22T20:45:50.943Z,48.58
2023-05-22T20:48:19.839Z,48.44
2023-05-22T20:50:50.715Z,48.71
2023-05-22T20:53:19.837Z,49.01
2023-05-22T20:55:48.504Z,49.19
2023-05-22T20:58:17.426Z,49.05
2023-05-22T21:00:49.871Z,49.26
2023-05-22T21:03:19.005Z,48.96
2023-05-22T21:05:47.409Z,48.52
2023-05-22T21:08:16.133Z,48.32
2023-05-22T21:10:44.772Z,48.29
2023-05-22T21:13:13.563Z,48.30
2023-05-22T21:15:42.674Z,48.07
2023-05-22T21:18:12.328Z,47.92
2023-05-22T21:20:41.222Z,47.80
2023-05-22T21:23:11.592Z,47.84
2023-05-22T21:25:40.107Z,48.08
2023-05-22T21:28:08.974Z,48.37
2023-05-22T21:30:37.689Z,48.93
2023-05-22T21:33:06.695Z,49.48
2023-05-22T21:35:35.556Z,49.93
2023-05-22T21:38:04.596Z,50.30
2023-05-22T21:40:33.226Z,50.32
2023-05-22T21:43:02.426Z,50.51
2023-05-22T21:45:31.363Z,50.66
2023-05-22T21:48:00.618Z,51.07
2023-05-22T21:50:30.422Z,51.18
2023-05-22T21:52:59.288Z,51.44
2023-05-22T21:55:27.830Z,51.26
2023-05-22T21:57:56.889Z,50.97
2023-05-22T22:00:25.372Z,51.08
2023-05-22T22:02:57.633Z,51.29
2023-05-22T22:05:27.892Z,50.99
2023-05-22T22:07:56.836Z,50.82
2023-05-22T22:10:25.373Z,50.93
2023-05-22T22:12:54.217Z,51.08
2023-05-22T22:15:22.997Z,51.45
2023-05-22T22:17:52.864Z,51.32
2023-05-22T22:20:33.700Z,51.23
2023-05-22T22:23:12.342Z,51.53
2023-05-22T22:25:40.945Z,51.49
2023-05-22T22:28:09.826Z,51.49
2023-05-22T22:30:38.600Z,51.32
2023-05-22T22:33:07.993Z,51.67
2023-05-22T22:35:36.482Z,51.48
2023-05-22T22:38:05.706Z,51.77
2023-05-22T22:40:34.303Z,51.68
2023-05-22T22:43:03.957Z,51.52
2023-05-22T22:45:32.470Z,51.53
2023-05-22T22:48:01.271Z,51.62
2023-05-22T22:50:30.049Z,51.49
2023-05-22T22:52:59.375Z,51.42
2023-05-22T22:55:28.772Z,51.41
2023-05-22T22:57:57.879Z,51.75
2023-05-22T23:00:26.446Z,51.92
2023-05-22T23:02:55.396Z,51.60
2023-05-22T23:05:23.933Z,51.73
2023-05-22T23:07:52.888Z,51.89
2023-05-22T23:10:22.351Z,52.04
2023-05-22T23:12:51.423Z,52.11
2023-05-22T23:15:20.258Z,52.06
2023-05-22T23:17:51.020Z,52.37
2023-05-22T23:20:20.606Z,52.43
2023-05-22T23:22:49.389Z,52.49
2023-05-22T23:25:17.871Z,52.25
2023-05-22T23:27:46.816Z,52.68
2023-05-22T23:30:15.662Z,52.70
2023-05-22T23:32:44.510Z,52.75
2023-05-22T23:35:13.133Z,52.79
2023-05-22T23:37:41.965Z,52.82
2023-05-22T23:40:10.955Z,52.78
2023-05-22T23:42:40.055Z,52.63
2023-05-22T23:45:08.818Z,52.18
2023-05-22T23:47:37.622Z,52.12
2023-05-22T23:50:07.348Z,52.14
2023-05-22T23:52:36.127Z,52.01
2023-05-22T23:55:05.101Z,51.85
2023-05-22T23:57:33.878Z,51.87
